DIRECCIÓN GENERAL DE AERONÁUTICA CIVIL
DIRECCIÓN METEOROLÓGICA DE CHILE
INFORMACIÓN METAR Y TAF

FIR PUERTO MONTT

Estación: SCQP
METAR SCQP 011100Z 03016KT 9999 -RA SCT036 OVC080 12/07 Q1006=

TAF SCQP 011041Z 0112/0212 03016KT 5000 -RA BKN025 OVC060 TX14/0118Z TN10/0109Z TEMPO 0118/0204 9999 NSW=

Estación: SCVD
METAR SCVD 011100Z AUTO 04006KT 010V070 9999 -RA FEW028 OVC053 11/09 Q1005=

TAF SCVD 011042Z 0112/0124 36015KT 5000 -RA SCT025 OVC060 TN11/0112Z TX13/0118Z TEMPO 0116/0120 36018G28KT=

Estación: SCJO
METAR SCJO 312300Z 00000KT 9999 FEW025 BKN080 12/09 Q1009=

TAF SCJO 011043Z 0112/0124 03012KT 5000 -SHRA SCT025 OVC060 TN11/ 0112Z TX13/0118Z BECMG 0119/0121 35010KT=

Estación: SCTE
METAR SCTE 011100Z 36012KT 8000 -RA OVC060 12/09 Q1006 NOSIG=

TAF SCTE 011044Z 0112/0212 04012KT 5000 -SHRA SCT030 OVC070 TX13/ 0118Z TN10/0209Z TEMPO 0115/0119 9999 NSW BKN030 BECMG 0203/0205 9999 NSW BKN050 BECMG 0208/0210 5000 SHRA SCT015 BKN040=

Estación: SCPQ
METAR SCPQ 011100Z AUTO 04007KT //// -RA FEW032 10/08 Q1004=

TAF SCPQ 011049Z 0112/0124 36010KT 5000 -RA BKN025 OVC060 TN08/0112Z TX12/0118Z BECMG 0116/0118 9999 NSW BKN040 TEMPO 0121/0124 5000 SHRA=

Estación: SCON
METAR SCON 011100Z AUTO VRB01KT 5000 -DZ 08/08 Q1005=

TAF SCON 011045Z 0112/0124 03015KT 5000 -SHRA BKN025 OVC060 TN08/ 0112Z TX12/0118Z TEMPO 0119/0120 9999 NSW=

Estación: SCTN
METAR SCTN NIL=

TAF SCTN NIL=

Estación: SCFT
METAR SCFT 011100Z AUTO VRB01KT 9999 -RA 06/04 Q1008=

TAF SCFT NIL=

Estación: SCAP
METAR SCAP 011100Z AUTO 07003KT 010V120 9999 -RA NSC 06/04 Q1014=

TAF SCAP NIL=

Estación: SCMK
METAR SCMK 301700Z 36015G27KT 9999 BKN013 11/09 Q1007=

TAF SCMK 011046Z 0112/0124 03015KT 5000 -RA BKN017 OVC060 TN08/0112Z TX12/0118Z TEMPO 0115/0119 9999 NSW=

Estación: SCAS
METAR SCAS 292000Z 00000KT 9999 -RA FEW010 OVC036 10/06 Q1009=

TAF SCAS NIL=

Estación: SCCY
METAR SCCY 010000Z 00000KT 9999 BKN040 10/07 Q1010=

TAF SCCY 011047Z 0112/0124 06010KT 9999 SCT035 OVC060 TN04/0112Z TX12 /0118Z BECMG 0119/0121 7000 -SHRA BKN035 OVC060=

Estación: SCBA
METAR SCBA 011100Z AUTO 00000KT 9999 VV/// 04/01 Q1009=

TAF SCBA 011048Z 0112/0212 09005KT 9999 BKN100 TX12/0118Z TN04/0209Z TEMPO 0120/0201 8000 -SHRA BKN030 OVC080 BECMG 0202/0204 30010KT CAVOK=

Estación: SCCC
METAR SCCC 292000Z 33003KT 9999 BKN040 09/02 Q1009=

TAF SCCC CECF 7687=

Estación: SCHR
METAR SCHR 292000Z 30007KT 9999 -RA SCT040 OVC070 07/02 Q1006=

TAF SCHR 011100Z 0112/0200 28005KT 9999 FEW045 TX13/0118Z TN07/0200Z TEMPO 0112/0115 03005KT CAVOK=


Volver